Time;durP1;ratioP1;P1;durP2;ratioP2;P2;SDS_P1;SDS_P2;PMS_P1;PMS_P2;Temp;Humidity;BMP_temperature;BMP_pressure;BME280_temperature;BME280_humidity;BME280_pressure;Samples;Min_cycle;Max_cycle;Signal;HPM_P1;HPM_P2
2021/08/31 00:01:29;;;;;;;18.08;7.53;;;;;;;14.96;82.01;102442.75;5050585;28;20036;-41
2021/08/31 00:03:55;;;;;;;17.15;7.10;;;;;;;14.97;81.85;102443.59;5052089;28;20128;-41
2021/08/31 00:06:20;;;;;;;20.13;7.43;;;;;;;14.93;82.06;102438.53;5051778;28;20025;-41
2021/08/31 00:08:45;;;;;;;19.90;7.97;;;;;;;14.90;82.33;102443.41;5051689;28;20039;-41
2021/08/31 00:11:11;;;;;;;15.27;7.57;;;;;;;14.92;82.00;102435.97;5050345;28;20048;-41
2021/08/31 00:13:36;;;;;;;21.45;7.97;;;;;;;14.93;82.01;102437.69;5051564;28;20029;-41
2021/08/31 00:16:01;;;;;;;16.20;8.05;;;;;;;14.88;82.30;102445.47;5055757;28;20056;-41
2021/08/31 00:18:27;;;;;;;16.80;7.72;;;;;;;14.78;82.58;102442.09;5055659;28;20025;-40
2021/08/31 00:20:52;;;;;;;17.42;7.65;;;;;;;14.86;82.48;102444.78;5055426;28;20059;-41
2021/08/31 00:23:17;;;;;;;16.38;8.45;;;;;;;14.87;82.34;102449.19;5055634;28;20024;-41
2021/08/31 00:25:43;;;;;;;26.27;9.25;;;;;;;14.82;82.67;102446.16;5055633;28;20025;-42
2021/08/31 00:28:08;;;;;;;16.58;7.60;;;;;;;14.81;82.94;102449.88;5055522;28;20021;-41
2021/08/31 00:30:33;;;;;;;18.65;8.20;;;;;;;14.78;83.08;102442.09;5055272;28;20036;-42
2021/08/31 00:32:58;;;;;;;14.45;7.22;;;;;;;14.79;82.80;102452.75;5054940;28;20062;-41
2021/08/31 00:35:24;;;;;;;18.33;7.80;;;;;;;14.82;82.64;102449.69;5055413;28;20078;-41
2021/08/31 00:37:50;;;;;;;17.95;7.93;;;;;;;14.83;82.95;102454.13;5055591;28;20025;-41
2021/08/31 00:40:16;;;;;;;24.90;9.25;;;;;;;14.76;83.17;102455.81;5055655;28;20021;-42
2021/08/31 00:42:41;;;;;;;22.27;8.55;;;;;;;14.75;83.31;102450.56;5054781;28;20373;-41
2021/08/31 00:45:07;;;;;;;20.92;8.57;;;;;;;14.76;83.38;102458.50;5055271;28;20369;-40
2021/08/31 00:47:32;;;;;;;18.42;8.02;;;;;;;14.74;83.10;102462.41;5055231;28;20139;-41
2021/08/31 00:49:57;;;;;;;19.55;7.50;;;;;;;14.73;83.64;102455.31;5055336;28;20025;-41
2021/08/31 00:52:23;;;;;;;21.80;8.52;;;;;;;14.70;83.61;102460.06;5054652;28;20033;-42
2021/08/31 00:54:48;;;;;;;19.10;8.25;;;;;;;14.70;83.77;102464.63;5048663;28;20028;-41
2021/08/31 00:57:14;;;;;;;21.42;7.88;;;;;;;14.73;83.58;102468.88;5035200;28;20430;-42
2021/08/31 00:59:39;;;;;;;25.45;8.55;;;;;;;14.74;83.56;102459.69;5047463;28;20060;-42
2021/08/31 01:02:05;;;;;;;12.93;8.50;;;;;;;14.70;83.69;102456.50;5053825;28;20453;-42
2021/08/31 01:04:31;;;;;;;23.50;8.93;;;;;;;14.67;83.46;102459.56;5054801;28;20021;-41
2021/08/31 01:06:57;;;;;;;16.08;9.02;;;;;;;14.65;83.81;102457.00;5054957;28;20031;-42
2021/08/31 01:09:23;;;;;;;22.90;9.10;;;;;;;14.65;83.73;102456.16;5054837;28;20411;-41
2021/08/31 01:11:50;;;;;;;21.02;8.45;;;;;;;14.62;83.76;102457.34;5053941;28;20350;-41
2021/08/31 01:14:17;;;;;;;22.85;9.48;;;;;;;14.60;83.89;102459.38;5054573;28;20056;-41
2021/08/31 01:16:42;;;;;;;21.00;8.63;;;;;;;14.56;84.11;102458.03;5054853;28;20040;-42
2021/08/31 01:19:08;;;;;;;20.25;8.73;;;;;;;14.55;84.17;102464.44;5054836;28;20075;-41
2021/08/31 01:21:33;;;;;;;29.50;10.35;;;;;;;14.54;84.29;102460.06;5054337;28;20041;-42
2021/08/31 01:23:59;;;;;;;22.83;9.35;;;;;;;14.55;84.28;102463.59;5054365;28;20487;-42
2021/08/31 01:26:25;;;;;;;26.15;9.63;;;;;;;14.54;84.05;102464.63;5054426;28;20499;-41
2021/08/31 01:28:50;;;;;;;20.30;9.07;;;;;;;14.51;84.14;102465.78;5053251;28;20045;-41
2021/08/31 01:31:16;;;;;;;20.48;9.30;;;;;;;14.53;84.15;102468.34;5054330;28;20124;-40
2021/08/31 01:33:41;;;;;;;19.73;8.50;;;;;;;14.62;83.75;102470.88;5054456;28;20049;-41
2021/08/31 01:36:23;;;;;;;20.58;8.32;;;;;;;14.57;84.02;102480.53;5054562;28;20376;-41
2021/08/31 01:38:50;;;;;;;22.42;9.65;;;;;;;14.53;84.25;102468.34;5053447;28;20108;-40
2021/08/31 01:41:16;;;;;;;24.75;10.00;;;;;;;14.52;84.22;102475.59;5054095;28;20520;-42
2021/08/31 01:43:41;;;;;;;21.42;10.27;;;;;;;14.50;84.29;102480.31;5054234;28;20107;-41
2021/08/31 01:46:07;;;;;;;23.08;9.73;;;;;;;14.52;84.26;102482.88;5053876;28;20116;-41
2021/08/31 01:48:32;;;;;;;29.48;10.60;;;;;;;14.54;84.24;102481.72;5054032;28;20044;-42
2021/08/31 01:50:57;;;;;;;25.40;9.80;;;;;;;14.56;83.96;102479.72;5053625;28;20380;-41
2021/08/31 01:53:23;;;;;;;26.05;10.15;;;;;;;14.55;84.05;102472.56;5054089;28;20033;-40
2021/08/31 01:55:48;;;;;;;24.38;8.98;;;;;;;14.55;84.03;102477.16;5053987;28;20079;-41
2021/08/31 01:58:13;;;;;;;23.13;8.82;;;;;;;14.54;84.20;102476.31;5054039;28;20424;-41
2021/08/31 02:00:39;;;;;;;21.20;9.43;;;;;;;14.55;83.82;102483.41;5053220;28;20028;-40
2021/08/31 02:03:05;;;;;;;26.88;9.43;;;;;;;14.50;84.18;102483.03;5052590;28;20163;-41
2021/08/31 02:05:30;;;;;;;31.30;10.27;;;;;;;14.44;84.41;102479.13;5054064;28;20032;-41
2021/08/31 02:07:56;;;;;;;28.92;10.73;;;;;;;14.44;84.20;102491.84;5049445;28;20082;-41
2021/08/31 02:10:22;;;;;;;27.38;10.02;;;;;;;14.45;84.32;102486.25;5036456;28;20040;-40
2021/08/31 02:12:47;;;;;;;22.92;8.77;;;;;;;14.46;84.21;102495.22;5052541;28;20037;-41
2021/08/31 02:15:13;;;;;;;22.33;9.38;;;;;;;14.46;84.27;102485.25;5053807;28;20421;-40
2021/08/31 02:17:38;;;;;;;25.38;9.65;;;;;;;14.45;84.25;102482.69;5053900;28;20021;-41
2021/08/31 02:20:05;;;;;;;21.13;9.38;;;;;;;14.44;84.12;102475.59;5053584;28;20475;-42
2021/08/31 02:22:30;;;;;;;19.25;9.65;;;;;;;14.45;84.09;102478.09;5053356;28;20059;-41
2021/08/31 02:24:55;;;;;;;22.73;9.32;;;;;;;14.45;83.98;102479.97;5053578;28;20502;-41
2021/08/31 02:27:21;;;;;;;28.65;9.57;;;;;;;14.42;84.06;102485.72;5053796;28;20106;-40
2021/08/31 02:29:46;;;;;;;29.00;10.30;;;;;;;14.40;84.35;102480.50;5053466;28;20546;-41
2021/08/31 02:32:11;;;;;;;26.88;11.15;;;;;;;14.33;84.60;102478.63;5052692;28;20443;-41
2021/08/31 02:34:37;;;;;;;31.65;12.05;;;;;;;14.31;84.39;102476.06;5053247;28;20059;-41
2021/08/31 02:37:02;;;;;;;24.40;11.02;;;;;;;14.24;85.04;102481.31;5052760;28;20086;-41
2021/08/31 02:39:27;;;;;;;30.10;10.48;;;;;;;14.22;84.94;102475.22;5053287;28;20095;-41
2021/08/31 02:41:53;;;;;;;23.02;10.60;;;;;;;14.22;85.12;102472.50;5053039;28;20048;-41
2021/08/31 02:44:18;;;;;;;31.65;10.93;;;;;;;14.27;84.58;102470.16;5053201;28;20036;-41
2021/08/31 02:46:43;;;;;;;29.67;11.80;;;;;;;14.28;84.47;102471.00;5051625;28;20051;-42
2021/08/31 02:49:09;;;;;;;27.23;10.15;;;;;;;14.25;84.97;102469.47;5053181;28;20531;-41
2021/08/31 02:51:34;;;;;;;25.40;11.60;;;;;;;14.21;84.97;102470.78;5052271;28;20027;-42
2021/08/31 02:53:59;;;;;;;28.30;11.25;;;;;;;14.18;84.98;102464.88;5052520;28;20051;-42
2021/08/31 02:56:25;;;;;;;30.25;12.10;;;;;;;14.19;85.06;102478.25;5052749;28;20029;-41
2021/08/31 02:58:50;;;;;;;33.08;12.02;;;;;;;14.19;84.92;102472.84;5052759;28;20069;-42
2021/08/31 03:01:35;;;;;;;24.40;12.07;;;;;;;14.20;84.62;102469.13;5043062;28;20025;-41
2021/08/31 03:04:01;;;;;;;32.97;10.65;;;;;;;14.26;84.68;102473.00;5049130;28;20543;-41
2021/08/31 03:06:28;;;;;;;30.33;11.15;;;;;;;14.22;84.69;102477.09;5052740;28;20105;-42
2021/08/31 03:08:54;;;;;;;26.90;10.15;;;;;;;14.25;84.57;102477.59;5051538;28;20562;-41
2021/08/31 03:11:19;;;;;;;28.60;11.70;;;;;;;14.16;84.89;102480.44;5052785;28;20029;-42
2021/08/31 03:13:45;;;;;;;24.92;10.65;;;;;;;14.15;85.17;102481.47;5052769;28;20047;-42
2021/08/31 03:16:10;;;;;;;30.55;10.43;;;;;;;14.20;84.64;102479.94;5052307;28;20469;-42
2021/08/31 03:18:36;;;;;;;21.83;9.48;;;;;;;14.18;84.71;102476.56;5052443;28;20047;-41
2021/08/31 03:21:01;;;;;;;23.77;10.13;;;;;;;14.17;84.56;102479.44;5052423;28;20040;-47
2021/08/31 03:23:26;;;;;;;21.65;9.15;;;;;;;14.13;84.72;102473.50;5052476;28;20036;-42
2021/08/31 03:25:52;;;;;;;23.50;10.07;;;;;;;14.15;84.81;102479.59;5052566;28;20087;-41
2021/08/31 03:28:17;;;;;;;24.15;10.38;;;;;;;14.10;84.90;102476.53;5052291;28;20025;-41
2021/08/31 03:30:42;;;;;;;27.88;10.48;;;;;;;14.10;84.87;102472.97;5052218;28;20400;-41
2021/08/31 03:33:08;;;;;;;24.25;10.98;;;;;;;14.04;85.33;102477.19;5052010;28;20035;-41
2021/08/31 03:35:33;;;;;;;27.38;10.48;;;;;;;14.04;85.35;102474.50;5024817;28;20029;-41
2021/08/31 03:37:59;;;;;;;26.42;10.90;;;;;;;14.03;85.31;102479.06;5032496;28;20119;-41
2021/08/31 03:40:24;;;;;;;26.38;10.25;;;;;;;14.02;85.18;102481.94;5032625;28;20083;-40
2021/08/31 03:42:49;;;;;;;22.23;9.10;;;;;;;14.02;85.65;102492.75;5032448;28;20037;-41
2021/08/31 03:45:15;;;;;;;23.45;10.13;;;;;;;14.04;85.04;102490.75;5048964;28;20032;-42
2021/08/31 03:47:41;;;;;;;22.63;8.93;;;;;;;14.08;84.79;102492.09;5052587;28;20033;-41
2021/08/31 03:50:06;;;;;;;27.13;9.70;;;;;;;14.07;84.96;102495.81;5055690;28;20451;-41
2021/08/31 03:52:32;;;;;;;27.45;9.82;;;;;;;14.09;84.56;102488.38;5055361;28;20028;-41
2021/08/31 03:54:57;;;;;;;18.90;8.27;;;;;;;14.05;84.65;102492.41;5054323;28;20104;-42
2021/08/31 03:57:22;;;;;;;18.90;8.55;;;;;;;14.03;84.66;102489.91;5055534;28;20032;-41
2021/08/31 03:59:48;;;;;;;26.63;9.98;;;;;;;14.06;84.48;102488.72;5055839;28;20024;-42
2021/08/31 04:02:13;;;;;;;20.00;8.25;;;;;;;14.08;84.17;102483.13;5054864;28;20029;-42
2021/08/31 04:04:39;;;;;;;19.48;7.78;;;;;;;14.04;84.40;102488.03;5054898;28;20036;-41
2021/08/31 04:07:04;;;;;;;23.50;8.88;;;;;;;14.04;84.19;102485.31;5055790;28;20062;-41
2021/08/31 04:09:29;;;;;;;23.65;8.43;;;;;;;14.00;84.24;102495.63;5055448;28;20492;-41
2021/08/31 04:11:55;;;;;;;16.05;8.25;;;;;;;13.97;84.22;102489.69;5055375;28;20021;-42
2021/08/31 04:14:20;;;;;;;26.20;8.90;;;;;;;13.90;84.56;102496.75;5055578;28;20104;-42
2021/08/31 04:16:45;;;;;;;23.45;8.48;;;;;;;13.91;84.69;102498.47;5055588;28;20059;-42
2021/08/31 04:19:11;;;;;;;15.30;7.35;;;;;;;13.88;84.65;102496.09;5054924;28;20049;-41
2021/08/31 04:21:36;;;;;;;17.50;7.53;;;;;;;13.87;84.61;102499.81;5055473;28;20032;-41
2021/08/31 04:24:02;;;;;;;20.38;8.13;;;;;;;13.84;84.49;102507.22;5055434;28;20445;-40
2021/08/31 04:26:27;;;;;;;21.77;8.32;;;;;;;13.77;85.16;102506.22;5055308;28;20519;-41
2021/08/31 04:28:53;;;;;;;17.30;8.32;;;;;;;13.74;85.07;102516.47;5054256;28;20094;-41
2021/08/31 04:31:18;;;;;;;20.42;8.40;;;;;;;13.71;85.02;102509.53;5056043;28;20064;-42
2021/08/31 04:33:44;;;;;;;18.13;7.50;;;;;;;13.73;84.79;102515.66;5056844;28;20021;-41
2021/08/31 04:36:09;;;;;;;16.88;6.78;;;;;;;13.73;84.88;102515.66;5056052;28;20025;-42
2021/08/31 04:38:35;;;;;;;25.05;7.28;;;;;;;13.79;84.76;102509.56;5056791;28;20106;-41
2021/08/31 04:41:00;;;;;;;14.23;6.50;;;;;;;13.84;84.42;102506.38;5056910;28;20032;-41
2021/08/31 04:43:27;;;;;;;22.00;7.03;;;;;;;13.88;84.13;102510.47;5056563;28;20040;-41
2021/08/31 04:45:52;;;;;;;24.48;8.63;;;;;;;13.91;83.96;102512.00;5048932;28;20148;-41
2021/08/31 04:48:17;;;;;;;23.20;7.50;;;;;;;13.87;84.54;102514.19;5034997;28;20122;-41
2021/08/31 04:50:42;;;;;;;15.70;6.97;;;;;;;13.93;83.80;102512.66;5052134;28;20021;-41
2021/08/31 04:53:08;;;;;;;17.70;6.97;;;;;;;13.91;83.54;102512.00;5052946;28;20412;-41
2021/08/31 04:55:33;;;;;;;26.58;7.70;;;;;;;13.90;83.85;102531.94;5054253;28;20021;-41
2021/08/31 04:57:58;;;;;;;17.38;6.82;;;;;;;13.80;84.38;102522.13;5054356;28;20033;-42
2021/08/31 05:00:24;;;;;;;18.00;7.60;;;;;;;13.86;83.87;102528.72;5044232;28;20044;-41
2021/08/31 05:02:50;;;;;;;24.05;7.70;;;;;;;13.79;84.47;102523.09;5053906;28;20025;-42
2021/08/31 05:05:16;;;;;;;18.92;7.13;;;;;;;13.79;83.98;102525.81;5054208;28;20031;-42
2021/08/31 05:07:41;;;;;;;19.92;7.35;;;;;;;13.80;84.02;102532.94;5045698;28;20108;-42
2021/08/31 05:10:07;;;;;;;19.75;7.10;;;;;;;13.80;84.42;102527.53;5050001;28;20063;-42
2021/08/31 05:12:33;;;;;;;20.08;7.45;;;;;;;13.80;84.47;102527.53;5053432;28;20645;-42
2021/08/31 05:14:58;;;;;;;22.70;7.72;;;;;;;13.86;84.09;102527.88;5054255;28;20386;-41
2021/08/31 05:17:23;;;;;;;23.05;7.30;;;;;;;13.93;83.76;102520.78;5052188;28;20059;-40
2021/08/31 05:19:49;;;;;;;27.63;8.07;;;;;;;13.93;83.91;102523.50;5054115;28;20031;-40
2021/08/31 05:22:14;;;;;;;20.88;7.25;;;;;;;13.99;83.95;102525.56;5053970;28;20090;-39
2021/08/31 05:24:39;;;;;;;20.17;6.72;;;;;;;14.13;83.29;102530.34;5054030;28;20067;-41
2021/08/31 05:27:06;;;;;;;18.30;7.03;;;;;;;14.12;83.43;102528.66;5054032;28;20072;-41
2021/08/31 05:29:31;;;;;;;16.65;5.70;;;;;;;14.28;83.04;102536.00;5053920;28;20036;-41
2021/08/31 05:31:57;;;;;;;24.48;7.32;;;;;;;14.46;82.60;102535.88;5053658;28;20405;-41
2021/08/31 05:34:22;;;;;;;22.75;6.43;;;;;;;14.78;81.78;102526.97;5052859;28;20481;-42
2021/08/31 05:36:47;;;;;;;21.67;6.15;;;;;;;15.24;79.77;102537.28;5053285;28;20041;-45
2021/08/31 05:39:13;;;;;;;11.27;4.72;;;;;;;15.76;78.06;102540.41;5054186;28;20021;-41
2021/08/31 05:41:38;;;;;;;20.73;5.70;;;;;;;16.32;75.78;102542.19;5053403;28;20112;-41
2021/08/31 05:44:04;;;;;;;18.55;5.45;;;;;;;16.76;73.84;102556.00;5049528;28;20028;-41
2021/08/31 05:46:30;;;;;;;14.45;5.25;;;;;;;17.36;71.60;102550.78;5052832;28;20039;-40
2021/08/31 05:48:56;;;;;;;11.90;4.60;;;;;;;17.85;70.27;102553.88;5066172;28;20115;-41
2021/08/31 05:51:22;;;;;;;12.77;4.43;;;;;;;18.36;68.21;102550.31;5066980;28;20036;-41
2021/08/31 05:53:47;;;;;;;12.68;4.05;;;;;;;18.90;66.44;102563.47;5069604;28;20094;-41
2021/08/31 05:56:12;;;;;;;12.60;4.35;;;;;;;19.49;63.98;102560.41;5063646;28;20102;-42
2021/08/31 05:58:38;;;;;;;10.38;4.32;;;;;;;19.99;62.62;102563.03;5061909;28;20440;-42
2021/08/31 06:01:03;;;;;;;16.00;4.80;;;;;;;20.15;61.82;102559.94;5070226;28;20598;-41
2021/08/31 06:03:28;;;;;;;14.32;4.70;;;;;;;20.59;60.49;102568.75;5069071;28;20024;-42
2021/08/31 06:05:54;;;;;;;13.35;4.22;;;;;;;20.61;60.90;102569.38;5071299;28;20033;-41
2021/08/31 06:08:19;;;;;;;17.27;5.10;;;;;;;20.72;60.04;102577.00;5072223;28;20387;-41
2021/08/31 06:10:45;;;;;;;15.07;4.40;;;;;;;21.37;58.02;102573.66;5071508;28;20384;-41
2021/08/31 06:13:10;;;;;;;15.93;4.63;;;;;;;21.76;56.36;102582.91;5071493;28;20422;-41
2021/08/31 06:15:35;;;;;;;11.73;4.50;;;;;;;21.61;56.75;102581.22;5071962;28;20016;-43
2021/08/31 06:18:01;;;;;;;14.20;4.75;;;;;;;21.12;58.18;102582.50;5072091;28;20031;-42
2021/08/31 06:20:26;;;;;;;18.23;4.82;;;;;;;20.93;58.61;102588.78;5071991;28;20400;-40
2021/08/31 06:22:51;;;;;;;17.92;4.95;;;;;;;20.66;59.16;102588.75;5070166;28;20036;-41
2021/08/31 06:25:17;;;;;;;17.20;4.50;;;;;;;20.29;60.28;102581.88;5069162;28;20528;-41
2021/08/31 06:27:42;;;;;;;16.02;5.05;;;;;;;20.27;60.80;102583.97;5069309;28;20028;-42
2021/08/31 06:30:08;;;;;;;17.55;5.55;;;;;;;19.67;62.54;102594.59;5071922;28;20024;-40
2021/08/31 06:32:33;;;;;;;17.60;5.03;;;;;;;18.98;64.51;102590.63;5061565;28;20454;-41
2021/08/31 06:34:59;;;;;;;12.32;4.97;;;;;;;18.70;65.88;102592.41;5058503;28;20139;-41
2021/08/31 06:37:24;;;;;;;20.13;5.00;;;;;;;18.51;66.78;102594.72;5066546;28;20044;-41
2021/08/31 06:39:49;;;;;;;20.42;5.00;;;;;;;18.39;67.07;102594.38;5060460;28;20025;-42
2021/08/31 06:42:15;;;;;;;16.23;4.75;;;;;;;18.36;67.50;102591.19;5070508;28;20158;-41
2021/08/31 06:44:40;;;;;;;19.23;5.78;;;;;;;18.57;67.34;102593.94;5050653;28;20477;-42
2021/08/31 06:47:06;;;;;;;18.00;4.80;;;;;;;19.30;65.33;102604.78;5065369;28;20040;-42
2021/08/31 06:49:32;;;;;;;16.88;5.20;;;;;;;20.17;62.85;102607.06;5064448;28;20032;-43
2021/08/31 06:51:58;;;;;;;15.57;4.93;;;;;;;21.10;59.71;102601.03;5068994;28;20116;-42
2021/08/31 06:54:23;;;;;;;14.73;4.55;;;;;;;22.10;56.83;102606.44;5071252;28;20111;-41
2021/08/31 06:56:48;;;;;;;13.50;4.80;;;;;;;22.76;55.05;102599.81;5070780;28;20100;-42
2021/08/31 06:59:14;;;;;;;15.88;4.93;;;;;;;23.60;52.67;102604.03;5071571;28;20107;-43
2021/08/31 07:01:39;;;;;;;14.35;5.20;;;;;;;23.86;51.72;102605.69;5069273;28;20036;-42
2021/08/31 07:04:04;;;;;;;16.48;4.68;;;;;;;24.30;50.34;102606.44;5067473;28;20031;-42
2021/08/31 07:06:30;;;;;;;15.52;4.85;;;;;;;24.59;49.52;102609.47;5066998;28;20025;-42
2021/08/31 07:08:55;;;;;;;12.73;4.40;;;;;;;25.26;47.89;102609.31;5070479;28;20036;-41
2021/08/31 07:11:21;;;;;;;16.90;4.60;;;;;;;25.27;48.02;102622.00;5070364;28;20026;-40
2021/08/31 07:13:46;;;;;;;15.73;4.82;;;;;;;25.26;47.92;102617.59;5060688;28;20028;-41
2021/08/31 07:16:11;;;;;;;17.15;4.82;;;;;;;25.19;48.12;102616.84;5064916;28;20021;-41
2021/08/31 07:18:37;;;;;;;15.02;4.70;;;;;;;25.50;47.25;102614.84;5063555;28;20071;-42
2021/08/31 07:21:03;;;;;;;17.85;5.05;;;;;;;25.97;45.30;102620.38;5071223;28;20020;-41
2021/08/31 07:23:28;;;;;;;25.60;4.43;;;;;;;25.99;45.51;102623.75;5070847;28;20020;-40
2021/08/31 07:25:54;;;;;;;10.40;4.38;;;;;;;26.26;45.07;102616.59;5070337;28;20040;-40
2021/08/31 07:28:19;;;;;;;19.60;4.95;;;;;;;26.17;45.02;102611.69;5071271;28;20036;-40
2021/08/31 07:30:45;;;;;;;14.02;4.50;;;;;;;26.29;45.25;102618.00;5059939;28;20049;-41
2021/08/31 07:33:11;;;;;;;16.92;4.80;;;;;;;26.27;45.35;102614.66;5054149;28;20424;-41
2021/08/31 07:35:37;;;;;;;14.18;5.03;;;;;;;25.95;46.73;102625.28;5057270;28;20031;-41
2021/08/31 07:38:03;;;;;;;14.20;4.22;;;;;;;26.62;45.00;102622.84;5054978;28;20060;-41
2021/08/31 07:40:29;;;;;;;11.70;4.13;;;;;;;27.35;43.14;102620.28;5068164;28;20074;-41
2021/08/31 07:42:54;;;;;;;14.10;4.60;;;;;;;26.71;43.34;102620.53;5066932;28;20029;-41
2021/08/31 07:45:20;;;;;;;13.73;4.57;;;;;;;26.01;45.31;102627.94;5069966;28;20514;-40
2021/08/31 07:47:46;;;;;;;13.35;4.63;;;;;;;25.88;46.14;102624.56;5056629;28;20408;-39
2021/08/31 07:50:12;;;;;;;10.93;4.10;;;;;;;25.76;45.92;102619.06;5070273;28;20029;-41
2021/08/31 07:52:37;;;;;;;16.58;4.90;;;;;;;25.61;46.21;102617.59;5070286;28;20017;-40
2021/08/31 07:55:04;;;;;;;11.73;4.03;;;;;;;26.29;44.95;102629.06;5065389;28;20028;-41
2021/08/31 07:57:29;;;;;;;16.92;4.40;;;;;;;26.32;44.13;102623.03;5070152;28;20075;-41
2021/08/31 07:59:55;;;;;;;19.02;4.47;;;;;;;26.16;44.49;102624.66;5067602;28;20028;-41
2021/08/31 08:02:21;;;;;;;16.63;4.15;;;;;;;26.55;45.23;102619.41;5064117;28;20099;-41
2021/08/31 08:04:46;;;;;;;11.80;4.03;;;;;;;27.36;42.63;102621.97;5060578;28;20116;-41
2021/08/31 08:07:11;;;;;;;10.73;3.92;;;;;;;27.64;42.00;102626.53;5061458;28;20031;-41
2021/08/31 08:09:37;;;;;;;13.23;4.18;;;;;;;28.03;41.19;102632.09;5061348;28;20484;-42
2021/08/31 08:12:02;;;;;;;15.80;4.38;;;;;;;27.82;41.68;102628.22;5070808;28;20488;-40
2021/08/31 08:14:27;;;;;;;10.60;3.67;;;;;;;28.51;40.38;102638.81;5071136;28;20028;-41
2021/08/31 08:16:53;;;;;;;12.63;4.25;;;;;;;28.48;39.37;102639.31;5065755;28;20020;-42
2021/08/31 08:19:18;;;;;;;15.25;3.97;;;;;;;27.53;40.49;102633.84;5061695;28;20056;-41
2021/08/31 08:21:43;;;;;;;13.18;4.13;;;;;;;26.39;44.01;102633.97;5052116;28;20024;-42
2021/08/31 08:24:09;;;;;;;20.55;4.40;;;;;;;25.83;45.73;102645.44;5070419;28;20059;-41
2021/08/31 08:26:37;;;;;;;16.75;4.43;;;;;;;26.44;45.02;102634.91;5062932;28;20033;-42
2021/08/31 08:29:04;;;;;;;14.80;4.00;;;;;;;26.91;43.61;102634.72;5063316;28;20021;-40
2021/08/31 08:31:32;;;;;;;;;;;;;;;26.95;42.83;102640.56;5070716;28;20088;-40
2021/08/31 08:33:58;;;;;;;11.15;4.03;;;;;;;26.37;43.97;102641.63;5070316;28;19977;-41
2021/08/31 08:36:23;;;;;;;12.07;4.47;;;;;;;25.71;44.15;102638.25;5063492;28;20017;-41
2021/08/31 08:38:49;;;;;;;10.93;3.85;;;;;;;26.49;42.94;102640.53;5069274;28;20420;-41
2021/08/31 08:41:14;;;;;;;11.48;4.15;;;;;;;27.22;41.86;102638.03;5070048;28;20029;-41
2021/08/31 08:43:40;;;;;;;13.02;3.95;;;;;;;27.49;40.58;102651.19;5071011;28;20039;-40
2021/08/31 08:46:06;;;;;;;8.93;4.20;;;;;;;26.61;42.53;102647.94;5065751;28;20402;-42
2021/08/31 08:48:32;;;;;;;14.40;3.55;;;;;;;27.33;41.80;102645.44;5062008;28;20070;-40
2021/08/31 08:51:00;;;;;;;15.50;4.45;;;;;;;27.68;40.75;102651.78;5073295;28;20564;-40
2021/08/31 08:53:28;;;;;;;14.05;3.72;;;;;;;27.43;40.62;102658.56;5074035;28;20033;-40
2021/08/31 08:55:53;;;;;;;;;;;;;;;26.61;41.54;102659.00;5068387;28;20050;-41
2021/08/31 08:58:19;;;;;;;17.17;4.40;;;;;;;25.84;43.96;102649.06;5067717;28;19916;-40
2021/08/31 09:01:04;;;;;;;11.85;3.92;;;;;;;25.82;44.14;102652.00;5073049;28;20499;-40
2021/08/31 09:03:33;;;;;;;16.10;4.32;;;;;;;25.56;44.60;102653.31;5073283;28;20021;-42
2021/08/31 09:06:20;;;;;;;19.83;4.53;;;;;;;24.47;46.83;102658.13;5065331;28;20086;-41
2021/08/31 09:08:56;;;;;;;;;;;;;;;23.60;49.07;102655.41;5064429;28;20033;-41
2021/08/31 09:11:26;;;;;;;14.57;4.07;;;;;;;22.92;50.45;102654.19;5066139;28;19920;-39
2021/08/31 09:13:52;;;;;;;17.55;4.53;;;;;;;22.22;52.68;102661.47;5072112;28;20420;-41
2021/08/31 09:16:23;;;;;;;12.20;4.45;;;;;;;21.65;53.99;102659.22;5067308;28;20059;-40
2021/08/31 09:18:51;;;;;;;14.85;3.60;;;;;;;21.55;54.16;102657.97;5071842;28;20380;-40
2021/08/31 09:21:24;;;;;;;12.93;3.63;;;;;;;21.42;54.83;102665.13;5069857;28;20111;-41
2021/08/31 09:23:51;;;;;;;13.57;3.92;;;;;;;21.18;55.03;102658.34;5072846;28;20028;-41
2021/08/31 09:26:19;;;;;;;15.13;3.70;;;;;;;20.89;56.83;102666.91;5073182;28;20494;-41
2021/08/31 09:28:47;;;;;;;16.85;3.88;;;;;;;21.27;57.41;102659.84;5068395;28;20435;-41
2021/08/31 09:31:20;;;;;;;14.63;4.03;;;;;;;22.97;53.02;102662.63;5071727;28;20131;-42
2021/08/31 09:33:48;;;;;;;19.90;4.20;;;;;;;24.81;48.65;102666.78;5065625;28;20078;-41
2021/08/31 09:36:22;;;;;;;17.42;3.92;;;;;;;25.81;45.79;102672.41;5071477;28;20036;-41
2021/08/31 09:38:53;;;;;;;8.35;3.90;;;;;;;26.24;43.94;102670.34;5073256;28;20094;-42
2021/08/31 09:41:37;;;;;;;14.35;4.00;;;;;;;25.68;44.20;102672.66;5072862;28;20078;-41
2021/08/31 09:44:19;;;;;;;10.63;3.63;;;;;;;24.87;46.00;102660.34;5061887;28;20365;-42
2021/08/31 09:46:58;;;;;;;8.82;4.07;;;;;;;24.12;48.15;102671.63;5060425;28;20041;-42
2021/08/31 09:49:37;;;;;;;14.35;3.85;;;;;;;23.35;49.21;102664.47;5068011;28;20067;-41
2021/08/31 09:52:12;;;;;;;14.48;4.30;;;;;;;22.79;51.24;102665.25;5049725;28;20032;-41
2021/08/31 09:54:43;;;;;;;10.60;3.85;;;;;;;22.66;52.14;102663.41;5048014;28;20036;-40
2021/08/31 09:57:31;;;;;;;11.40;3.58;;;;;;;22.55;52.03;102670.41;5044572;28;20110;-40
2021/08/31 09:59:59;;;;;;;10.00;3.67;;;;;;;22.68;51.87;102664.03;5050099;28;20035;-42
2021/08/31 10:02:25;;;;;;;14.73;4.38;;;;;;;22.81;51.46;102668.63;5050143;28;20063;-40
2021/08/31 10:04:54;;;;;;;8.80;3.67;;;;;;;22.92;50.57;102665.16;5052942;28;20025;-41
2021/08/31 10:07:21;;;;;;;11.38;4.25;;;;;;;22.93;50.80;102661.38;5050688;28;20086;-40
2021/08/31 10:09:47;;;;;;;20.80;4.25;;;;;;;22.63;50.49;102665.75;5051923;28;20035;-40
2021/08/31 10:12:14;;;;;;;16.77;4.47;;;;;;;22.43;51.33;102668.56;5053299;28;20021;-41
2021/08/31 10:14:43;;;;;;;15.77;4.40;;;;;;;22.32;51.75;102670.09;5053351;28;20056;-40
2021/08/31 10:17:10;;;;;;;16.05;5.05;;;;;;;22.24;52.82;102671.16;5053629;28;20040;-40
2021/08/31 10:19:40;;;;;;;10.73;5.10;;;;;;;22.06;53.74;102676.44;5053600;28;20029;-39
2021/08/31 10:22:06;;;;;;;12.75;4.65;;;;;;;21.91;53.93;102676.72;5051817;28;20067;-41
2021/08/31 10:24:31;;;;;;;17.60;4.70;;;;;;;21.99;53.53;102681.13;5052104;28;20033;-41
2021/08/31 10:26:56;;;;;;;10.18;4.97;;;;;;;22.04;54.11;102673.94;5051569;28;20025;-41
2021/08/31 10:29:21;;;;;;;15.90;4.63;;;;;;;21.78;55.61;102673.97;5053046;28;20071;-41
2021/08/31 10:31:52;;;;;;;12.32;4.18;;;;;;;21.69;55.00;102676.91;5052791;28;20056;-41
2021/08/31 10:34:30;;;;;;;13.15;4.53;;;;;;;21.75;55.30;102685.34;5051383;28;20028;-41
2021/08/31 10:37:06;;;;;;;13.57;4.28;;;;;;;21.82;55.05;102686.19;5052284;28;20029;-41
2021/08/31 10:39:55;;;;;;;13.10;3.90;;;;;;;21.92;55.38;102687.44;5052542;28;20063;-41
2021/08/31 10:42:26;;;;;;;14.00;4.47;;;;;;;21.88;54.87;102691.69;5035539;28;20028;-42
2021/08/31 10:44:53;;;;;;;14.25;4.63;;;;;;;21.68;55.56;102688.94;5050254;28;20100;-41
2021/08/31 10:47:36;;;;;;;14.68;4.50;;;;;;;21.42;55.81;102683.47;5052264;28;20037;-40
2021/08/31 10:50:01;;;;;;;11.95;4.85;;;;;;;21.45;56.38;102686.59;5052118;28;20025;-42
2021/08/31 10:52:50;;;;;;;16.52;4.50;;;;;;;21.53;56.13;102691.03;5051854;28;20025;-41
2021/08/31 10:55:18;;;;;;;14.40;4.63;;;;;;;21.59;55.46;102686.63;5051904;28;20120;-40
2021/08/31 10:57:44;;;;;;;14.00;4.43;;;;;;;21.61;55.95;102693.56;5051446;28;20032;-40
2021/08/31 11:00:15;;;;;;;16.85;4.40;;;;;;;21.72;55.98;102694.00;5052070;28;20033;-40
2021/08/31 11:02:46;;;;;;;17.88;4.60;;;;;;;21.65;55.76;102691.28;5051908;28;20115;-41
2021/08/31 11:05:17;;;;;;;15.88;4.20;;;;;;;21.85;56.18;102699.47;5051986;28;20073;-41
2021/08/31 11:07:43;;;;;;;18.42;4.43;;;;;;;22.09;54.64;102693.34;5051580;28;20025;-41
2021/08/31 11:10:08;;;;;;;16.38;4.22;;;;;;;22.34;54.28;102701.72;5051678;28;20039;-42
2021/08/31 11:12:34;;;;;;;13.50;4.63;;;;;;;22.83;52.78;102688.47;5051735;28;20017;-40
2021/08/31 11:14:59;;;;;;;12.30;3.88;;;;;;;23.12;52.38;102700.78;5050452;28;20468;-40